createdAt,value
2022-08-05T00:00:19.445Z,11.95
2022-08-05T00:02:51.393Z,15.60
2022-08-05T00:06:01.698Z,10.63
2022-08-05T00:08:32.432Z,12.68
2022-08-05T00:11:03.102Z,16.83
2022-08-05T00:13:39.139Z,13.23
2022-08-05T00:16:12.941Z,11.40
2022-08-05T00:18:46.708Z,13.57
2022-08-05T00:21:17.830Z,13.38
2022-08-05T00:24:16.218Z,11.30
2022-08-05T00:27:10.574Z,14.57
2022-08-05T00:30:22.024Z,16.67
2022-08-05T00:34:54.078Z,13.13
2022-08-05T00:36:15.181Z,13.90
2022-08-05T00:38:50.047Z,18.10
2022-08-05T00:41:29.975Z,10.18
2022-08-05T00:44:49.927Z,16.67
2022-08-05T00:47:24.391Z,14.82
2022-08-05T00:49:52.637Z,15.25
2022-08-05T00:52:28.282Z,11.88
2022-08-05T00:55:42.400Z,13.60
2022-08-05T00:58:13.326Z,15.77
2022-08-05T01:00:42.090Z,13.32
2022-08-05T01:03:22.892Z,13.30
2022-08-05T01:08:40.997Z,13.98
2022-08-05T01:11:36.783Z,21.63
2022-08-05T01:14:08.586Z,14.10
2022-08-05T01:16:55.192Z,16.38
2022-08-05T01:19:46.238Z,13.60
2022-08-05T01:22:24.201Z,14.20
2022-08-05T01:25:10.034Z,12.63
2022-08-05T01:28:20.521Z,14.90
2022-08-05T01:31:27.934Z,30.08
2022-08-05T01:34:10.318Z,16.02
2022-08-05T01:36:54.327Z,16.60
2022-08-05T01:39:45.755Z,19.17
2022-08-05T01:42:38.654Z,19.92
2022-08-05T01:45:10.102Z,14.98
2022-08-05T01:47:43.437Z,13.15
2022-08-05T01:50:16.101Z,16.50
2022-08-05T01:52:50.658Z,17.25
2022-08-05T01:55:22.655Z,16.88
2022-08-05T01:58:10.213Z,20.90
2022-08-05T02:00:50.574Z,15.43
2022-08-05T02:03:41.260Z,14.55
2022-08-05T02:06:37.331Z,17.17
2022-08-05T02:09:04.040Z,18.15
2022-08-05T02:15:35.660Z,14.30
2022-08-05T02:18:32.364Z,17.20
2022-08-05T02:21:20.378Z,20.13
2022-08-05T02:23:51.848Z,16.17
2022-08-05T02:28:54.149Z,14.35
2022-08-05T02:31:49.233Z,16.25
2022-08-05T02:34:22.011Z,14.05
2022-08-05T02:36:54.543Z,19.05
2022-08-05T02:39:26.012Z,18.50
2022-08-05T02:42:00.706Z,19.00
2022-08-05T02:44:32.214Z,21.98
2022-08-05T02:47:01.395Z,15.25
2022-08-05T02:49:37.752Z,18.33
2022-08-05T02:52:29.303Z,17.48
2022-08-05T02:55:01.778Z,14.20
2022-08-05T02:58:11.881Z,16.55
2022-08-05T03:00:23.231Z,15.10
2022-08-05T03:02:53.864Z,19.20
2022-08-05T03:06:57.161Z,16.23
2022-08-05T03:08:12.383Z,15.68
2022-08-05T03:11:41.125Z,14.73
2022-08-05T03:14:03.289Z,15.95
2022-08-05T03:16:33.853Z,16.50
2022-08-05T03:19:12.531Z,15.48
2022-08-05T03:21:49.560Z,16.20
2022-08-05T03:24:29.586Z,16.40
2022-08-05T03:27:00.222Z,14.65
2022-08-05T03:30:07.789Z,15.20
2022-08-05T03:32:38.967Z,14.63
2022-08-05T03:35:08.843Z,14.70
2022-08-05T03:37:46.392Z,16.88
2022-08-05T03:40:31.422Z,17.27
2022-08-05T03:43:16.053Z,16.58
2022-08-05T03:45:57.271Z,15.95
2022-08-05T03:48:28.979Z,16.67
2022-08-05T03:52:38.610Z,16.85
2022-08-05T03:56:01.855Z,19.77
2022-08-05T03:57:29.204Z,15.63
2022-08-05T04:00:37.449Z,17.15
2022-08-05T04:03:26.574Z,18.42
2022-08-05T04:05:59.158Z,16.83
2022-08-05T04:08:30.173Z,16.97
2022-08-05T04:11:47.463Z,18.48
2022-08-05T04:14:19.362Z,16.10
2022-08-05T04:17:00.379Z,16.73
2022-08-05T04:19:29.622Z,16.52
2022-08-05T04:22:08.092Z,16.15
2022-08-05T04:24:52.895Z,17.10
2022-08-05T04:27:33.286Z,15.77
2022-08-05T04:30:12.989Z,16.15
2022-08-05T04:32:41.857Z,17.33
2022-08-05T04:35:17.687Z,15.80
2022-08-05T04:38:02.755Z,16.27
2022-08-05T04:40:39.364Z,14.35
2022-08-05T04:43:22.091Z,15.38
2022-08-05T04:45:55.061Z,17.10
2022-08-05T04:48:27.959Z,17.98
2022-08-05T04:51:03.324Z,14.23
2022-08-05T04:53:38.609Z,12.93
2022-08-05T04:56:33.959Z,18.52
2022-08-05T04:58:56.422Z,16.63
2022-08-05T05:01:33.660Z,14.50
2022-08-05T05:04:13.222Z,14.80
2022-08-05T05:06:44.692Z,15.95
2022-08-05T05:09:16.875Z,17.10
2022-08-05T05:11:54.332Z,13.95
2022-08-05T05:14:31.455Z,18.02
2022-08-05T05:17:00.645Z,13.90
2022-08-05T05:19:39.627Z,17.38
2022-08-05T05:22:24.101Z,19.70
2022-08-05T05:24:57.083Z,20.52
2022-08-05T05:27:44.838Z,18.58
2022-08-05T05:30:30.659Z,19.00
2022-08-05T05:33:09.148Z,18.02
2022-08-05T05:35:46.022Z,21.83
2022-08-05T05:38:14.277Z,19.08
2022-08-05T05:40:50.068Z,16.60
2022-08-05T05:43:22.382Z,17.48
2022-08-05T05:46:12.261Z,16.85
2022-08-05T05:48:48.860Z,18.05
2022-08-05T05:51:21.615Z,16.30
2022-08-05T05:53:57.446Z,17.58
2022-08-05T05:56:33.084Z,19.77
2022-08-05T05:59:05.361Z,19.85
2022-08-05T06:01:40.010Z,20.92
2022-08-05T06:04:11.938Z,16.52
2022-08-05T06:06:43.088Z,15.85
2022-08-05T06:09:17.024Z,20.67
2022-08-05T06:12:01.866Z,18.45
2022-08-05T06:14:31.807Z,15.68
2022-08-05T06:17:02.096Z,14.85
2022-08-05T06:19:56.621Z,14.57
2022-08-05T06:22:33.553Z,17.67
2022-08-05T06:25:59.741Z,13.38
2022-08-05T06:28:11.106Z,18.25
2022-08-05T06:30:39.730Z,16.35
2022-08-05T06:33:10.813Z,16.17
2022-08-05T06:36:05.646Z,15.60
2022-08-05T06:38:35.793Z,16.05
2022-08-05T06:41:07.901Z,14.77
2022-08-05T06:43:51.739Z,16.67
2022-08-05T06:46:29.669Z,13.38
2022-08-05T06:49:01.266Z,10.73
2022-08-05T06:51:31.285Z,12.65
2022-08-05T06:54:04.987Z,12.53
2022-08-05T06:56:37.048Z,14.55
2022-08-05T06:59:38.570Z,14.13
2022-08-05T07:02:09.845Z,15.70
2022-08-05T07:04:42.981Z,14.75
2022-08-05T07:07:15.222Z,16.85
2022-08-05T07:09:46.243Z,28.45
2022-08-05T07:12:43.373Z,15.68
2022-08-05T07:16:01.015Z,12.10
2022-08-05T07:18:30.725Z,18.13
2022-08-05T07:21:04.740Z,16.40
2022-08-05T07:23:33.578Z,21.90
2022-08-05T07:28:35.485Z,10.70
2022-08-05T07:31:03.432Z,12.80
2022-08-05T07:33:37.153Z,11.55
2022-08-05T07:36:20.747Z,10.10
2022-08-05T07:38:54.722Z,30.05
2022-08-05T07:42:07.355Z,13.93
2022-08-05T07:44:19.315Z,14.95
2022-08-05T07:46:50.615Z,14.27
2022-08-05T07:49:20.661Z,19.83
2022-08-05T07:51:54.390Z,28.65
2022-08-05T07:54:31.486Z,70.45
2022-08-05T07:57:17.789Z,15.75
2022-08-05T07:59:51.987Z,28.33
2022-08-05T08:02:26.523Z,14.40
2022-08-05T08:04:59.502Z,11.60
2022-08-05T08:07:39.268Z,13.40
2022-08-05T08:10:08.540Z,16.95
2022-08-05T08:12:49.486Z,9.75
2022-08-05T08:15:18.165Z,12.57
2022-08-05T08:18:09.898Z,10.43
2022-08-05T08:21:02.143Z,18.80
2022-08-05T08:24:02.398Z,19.20
2022-08-05T08:26:29.418Z,14.70
2022-08-05T08:29:45.165Z,13.82
2022-08-05T08:32:06.150Z,11.13
2022-08-05T08:34:38.735Z,14.00
2022-08-05T08:37:06.779Z,17.83
2022-08-05T08:39:37.834Z,7.72
2022-08-05T08:42:32.423Z,9.65
2022-08-05T08:45:19.420Z,9.50
2022-08-05T08:48:11.702Z,9.52
2022-08-05T08:51:07.666Z,9.90
2022-08-05T08:53:29.085Z,14.82
2022-08-05T08:56:03.980Z,9.43
2022-08-05T08:58:37.618Z,8.25
2022-08-05T09:01:17.705Z,11.50
2022-08-05T09:03:54.458Z,10.82
2022-08-05T09:06:28.550Z,6.60
2022-08-05T09:09:02.997Z,9.85
2022-08-05T09:11:50.910Z,7.97
2022-08-05T09:14:57.954Z,7.00
2022-08-05T09:17:40.500Z,9.20
2022-08-05T09:20:05.817Z,9.27
2022-08-05T09:23:09.063Z,8.63
2022-08-05T09:26:02.327Z,9.30
2022-08-05T09:32:41.065Z,11.00
2022-08-05T09:35:26.295Z,9.75
2022-08-05T09:38:17.720Z,10.93
2022-08-05T09:43:41.207Z,7.65
2022-08-05T09:46:31.525Z,7.00
2022-08-05T09:49:19.188Z,11.63
2022-08-05T09:51:49.409Z,11.48
2022-08-05T09:54:28.799Z,8.13
2022-08-05T09:57:01.309Z,8.77
2022-08-05T09:59:36.929Z,7.65
2022-08-05T10:02:05.473Z,9.07
2022-08-05T10:04:39.385Z,7.80
2022-08-05T10:07:19.907Z,10.98
2022-08-05T10:10:13.910Z,9.98
2022-08-05T10:12:49.422Z,12.10
2022-08-05T10:15:34.147Z,20.00
2022-08-05T10:18:12.694Z,13.50
2022-08-05T10:20:44.364Z,7.40
2022-08-05T10:23:55.567Z,8.07
2022-08-05T10:26:14.443Z,7.68
2022-08-05T10:28:47.253Z,6.82
2022-08-05T10:32:48.446Z,9.88
2022-08-05T10:34:09.097Z,6.15
2022-08-05T10:36:39.754Z,12.57
2022-08-05T10:39:25.170Z,8.82
2022-08-05T10:42:18.503Z,9.90
2022-08-05T10:44:48.003Z,7.78
2022-08-05T10:47:27.113Z,14.63
2022-08-05T10:50:32.590Z,8.25
2022-08-05T10:52:58.509Z,6.38
2022-08-05T10:55:27.438Z,7.88
2022-08-05T10:58:11.874Z,9.52
2022-08-05T11:00:47.148Z,7.90
2022-08-05T11:03:24.477Z,8.98
2022-08-05T11:06:15.792Z,7.18
2022-08-05T11:09:17.185Z,10.35
2022-08-05T11:11:53.478Z,8.70
2022-08-05T11:14:57.382Z,9.90
2022-08-05T11:17:59.261Z,8.98
2022-08-05T11:20:38.923Z,6.13
2022-08-05T11:24:04.527Z,7.18
2022-08-05T11:26:43.231Z,7.00
2022-08-05T11:29:35.201Z,7.63
2022-08-05T11:32:29.307Z,6.28
2022-08-05T11:34:57.698Z,9.77
2022-08-05T11:38:36.505Z,7.03
2022-08-05T11:41:34.526Z,9.20
2022-08-05T11:44:11.096Z,8.55
2022-08-05T11:47:10.537Z,8.05
2022-08-05T11:50:08.841Z,8.85
2022-08-05T11:52:37.210Z,6.60
2022-08-05T11:55:10.618Z,10.07
2022-08-05T11:58:08.515Z,6.50
2022-08-05T12:00:30.411Z,7.18
2022-08-05T12:02:58.611Z,7.10
2022-08-05T12:05:36.152Z,8.10
2022-08-05T12:08:11.460Z,7.85
2022-08-05T12:10:45.302Z,6.95
2022-08-05T12:13:47.259Z,6.30
2022-08-05T12:16:15.408Z,7.78
2022-08-05T12:18:49.332Z,6.88
2022-08-05T12:21:26.585Z,6.82
2022-08-05T12:24:04.487Z,10.77
2022-08-05T12:26:44.315Z,8.65
2022-08-05T12:29:22.507Z,13.07
2022-08-05T12:31:54.394Z,10.25
2022-08-05T12:34:28.522Z,9.63
2022-08-05T12:36:58.644Z,12.50
2022-08-05T12:39:34.442Z,9.45
2022-08-05T12:42:17.849Z,10.15
2022-08-05T12:44:47.693Z,7.55
2022-08-05T12:47:36.008Z,12.32
2022-08-05T12:50:17.680Z,7.85
2022-08-05T12:52:56.740Z,9.25
2022-08-05T12:55:28.534Z,10.65
2022-08-05T12:58:50.805Z,8.50
2022-08-05T13:02:02.361Z,9.50
2022-08-05T13:03:43.353Z,9.70
2022-08-05T13:06:16.516Z,12.35
2022-08-05T13:08:52.212Z,10.35
2022-08-05T13:12:02.258Z,12.20
2022-08-05T13:14:24.697Z,12.10
2022-08-05T13:16:56.386Z,11.93
2022-08-05T13:19:52.196Z,15.38
2022-08-05T13:22:29.575Z,8.85
2022-08-05T13:25:00.647Z,9.20
2022-08-05T13:27:39.266Z,8.85
2022-08-05T13:30:34.598Z,12.70
2022-08-05T13:33:01.080Z,10.23
2022-08-05T13:35:43.178Z,11.02
2022-08-05T13:38:30.345Z,13.23
2022-08-05T13:41:02.047Z,11.10
2022-08-05T13:43:44.886Z,13.65
2022-08-05T13:46:35.670Z,11.27
2022-08-05T13:49:10.399Z,10.30
2022-08-05T13:51:46.641Z,12.98
2022-08-05T13:54:17.123Z,11.23
2022-08-05T13:56:50.826Z,10.63
2022-08-05T13:59:27.279Z,7.75
2022-08-05T14:02:00.043Z,10.48
2022-08-05T14:04:49.529Z,8.27
2022-08-05T14:08:00.768Z,9.23
2022-08-05T14:10:30.981Z,7.90
2022-08-05T14:13:00.136Z,9.93
2022-08-05T14:16:06.346Z,8.45
2022-08-05T14:18:18.485Z,10.05
2022-08-05T14:20:48.447Z,13.07
2022-08-05T14:23:24.663Z,13.70
2022-08-05T14:25:58.382Z,9.85
2022-08-05T14:28:30.866Z,10.93
2022-08-05T14:31:00.639Z,11.43
2022-08-05T14:33:56.362Z,8.18
2022-08-05T14:36:20.502Z,8.02
2022-08-05T14:38:50.295Z,9.65
2022-08-05T14:41:18.951Z,8.20
2022-08-05T14:43:57.593Z,7.70
2022-08-05T14:46:29.673Z,10.95
2022-08-05T14:49:06.692Z,12.27
2022-08-05T14:51:42.471Z,9.82
2022-08-05T14:54:28.255Z,8.90
2022-08-05T14:56:59.014Z,10.65
2022-08-05T14:59:29.703Z,9.20
2022-08-05T15:02:16.124Z,9.63
2022-08-05T15:04:44.907Z,7.53
2022-08-05T15:08:10.765Z,8.57
2022-08-05T15:10:03.795Z,9.60
2022-08-05T15:12:57.646Z,9.82
2022-08-05T15:15:55.541Z,9.65
2022-08-05T15:18:08.972Z,9.23
2022-08-05T15:20:36.921Z,12.77
2022-08-05T15:23:10.144Z,10.18
2022-08-05T15:25:52.008Z,10.25
2022-08-05T15:28:26.977Z,8.63
2022-08-05T15:30:56.339Z,10.25
2022-08-05T15:34:18.609Z,8.48
2022-08-05T15:36:16.851Z,9.63
2022-08-05T15:38:46.431Z,12.35
2022-08-05T15:41:22.880Z,10.93
2022-08-05T15:43:54.858Z,10.38
2022-08-05T15:46:24.867Z,10.95
2022-08-05T15:52:13.839Z,8.45
2022-08-05T15:54:45.809Z,10.52
2022-08-05T15:57:17.527Z,11.65
2022-08-05T15:59:45.545Z,13.50
2022-08-05T16:02:19.634Z,11.32
2022-08-05T16:04:53.328Z,9.75
2022-08-05T16:07:24.055Z,12.27
2022-08-05T16:09:52.277Z,9.73
2022-08-05T16:12:22.694Z,13.80
2022-08-05T16:14:51.512Z,10.35
2022-08-05T16:17:19.836Z,11.77
2022-08-05T16:20:05.576Z,11.02
2022-08-05T16:22:36.539Z,10.23
2022-08-05T16:25:10.045Z,10.68
2022-08-05T16:27:47.078Z,9.07
2022-08-05T16:33:55.080Z,10.35
2022-08-05T16:36:26.539Z,12.35
2022-08-05T16:38:55.617Z,13.75
2022-08-05T16:42:27.781Z,9.80
2022-08-05T16:44:14.766Z,9.98
2022-08-05T16:46:55.861Z,13.60
2022-08-05T16:49:26.636Z,11.68
2022-08-05T16:51:57.114Z,10.88
2022-08-05T16:54:28.952Z,10.00
2022-08-05T16:57:53.054Z,10.35
2022-08-05T17:00:26.148Z,14.93
2022-08-05T17:03:03.699Z,11.88
2022-08-05T17:05:37.677Z,15.52
2022-08-05T17:08:05.752Z,12.55
2022-08-05T17:10:35.955Z,9.20
2022-08-05T17:13:05.533Z,13.10
2022-08-05T17:15:48.503Z,15.80
2022-08-05T17:18:19.095Z,14.65
2022-08-05T17:20:52.341Z,9.93
2022-08-05T17:30:33.439Z,16.73
2022-08-05T17:46:36.982Z,13.93
2022-08-05T17:51:40.417Z,14.10
2022-08-05T17:54:39.332Z,12.90
2022-08-05T17:57:12.222Z,14.15
2022-08-05T17:59:40.588Z,12.48
2022-08-05T18:05:20.450Z,13.38
2022-08-05T18:07:48.984Z,13.50
2022-08-05T18:10:20.931Z,16.70
2022-08-05T18:12:49.856Z,12.10
2022-08-05T18:15:20.968Z,13.52
2022-08-05T18:17:58.958Z,17.05
2022-08-05T18:20:31.881Z,12.75
2022-08-05T18:23:11.357Z,14.85
2022-08-05T18:25:44.751Z,16.52
2022-08-05T18:28:17.799Z,13.50
2022-08-05T18:30:51.528Z,14.88
2022-08-05T18:33:23.305Z,13.00
2022-08-05T18:36:03.821Z,16.27
2022-08-05T18:38:38.003Z,12.27
2022-08-05T18:41:55.050Z,13.90
2022-08-05T18:43:55.562Z,16.50
2022-08-05T18:46:29.082Z,17.52
2022-08-05T18:48:56.930Z,15.55
2022-08-05T18:52:06.257Z,20.58
2022-08-05T18:54:32.758Z,15.82
2022-08-05T18:57:03.028Z,15.90
2022-08-05T18:59:42.811Z,34.33
2022-08-05T19:02:26.898Z,16.02
2022-08-05T19:05:02.057Z,19.17
2022-08-05T19:07:48.274Z,14.80
2022-08-05T19:10:17.363Z,20.52
2022-08-05T19:12:46.154Z,22.52
2022-08-05T19:15:57.485Z,17.85
2022-08-05T19:18:09.334Z,32.28
2022-08-05T19:20:41.805Z,26.15
2022-08-05T19:23:22.665Z,18.95
2022-08-05T19:26:02.193Z,21.20
2022-08-05T19:28:32.840Z,17.77
2022-08-05T19:31:04.837Z,25.25
2022-08-05T19:33:36.863Z,22.15
2022-08-05T19:36:06.906Z,25.02
2022-08-05T19:38:35.438Z,29.38
2022-08-05T19:41:14.675Z,26.88
2022-08-05T19:44:05.887Z,22.27
2022-08-05T19:46:40.920Z,27.58
2022-08-05T19:49:12.474Z,21.42
2022-08-05T19:52:13.147Z,24.42
2022-08-05T19:54:44.488Z,22.48
2022-08-05T19:57:13.603Z,24.92
2022-08-05T19:59:56.561Z,23.98
2022-08-05T20:02:47.187Z,24.50
2022-08-05T20:05:24.288Z,22.05
2022-08-05T20:07:59.162Z,23.45
2022-08-05T20:10:32.998Z,21.58
2022-08-05T20:15:52.018Z,27.15
2022-08-05T20:18:32.591Z,24.27
2022-08-05T20:21:04.827Z,28.27
2022-08-05T20:23:40.657Z,24.00
2022-08-05T20:26:20.858Z,24.55
2022-08-05T20:28:50.980Z,23.00
2022-08-05T20:31:21.971Z,24.10
2022-08-05T20:33:52.359Z,29.13
2022-08-05T20:36:22.152Z,27.40
2022-08-05T20:38:53.534Z,20.55
2022-08-05T20:41:26.816Z,23.98
2022-08-05T20:43:58.485Z,24.27
2022-08-05T20:46:28.479Z,23.08
2022-08-05T20:48:56.165Z,21.30
2022-08-05T20:51:24.283Z,24.38
2022-08-05T20:53:56.955Z,22.58
2022-08-05T20:56:28.172Z,21.70
2022-08-05T20:58:59.818Z,22.38
2022-08-05T21:01:37.385Z,24.10
2022-08-05T21:04:11.299Z,21.50
2022-08-05T21:06:45.549Z,24.98
2022-08-05T21:09:15.145Z,25.42
2022-08-05T21:12:09.615Z,25.17
2022-08-05T21:14:35.068Z,27.13
2022-08-05T21:17:04.987Z,23.65
2022-08-05T21:19:46.807Z,22.75
2022-08-05T21:22:18.297Z,23.17
2022-08-05T21:24:51.426Z,23.60
2022-08-05T21:27:24.992Z,24.60
2022-08-05T21:29:56.535Z,22.52
2022-08-05T21:32:28.983Z,26.83
2022-08-05T21:35:08.263Z,23.58
2022-08-05T21:37:52.720Z,27.52
2022-08-05T21:40:23.680Z,20.42
2022-08-05T21:42:53.749Z,25.00
2022-08-05T21:45:26.538Z,25.10
2022-08-05T21:48:10.662Z,26.92
2022-08-05T21:53:27.322Z,22.33
2022-08-05T21:56:09.651Z,23.77
2022-08-05T21:58:48.229Z,21.02
2022-08-05T22:01:26.484Z,22.13
2022-08-05T22:03:54.520Z,22.58
2022-08-05T22:06:35.079Z,25.45
2022-08-05T22:09:13.184Z,27.90
2022-08-05T22:11:46.775Z,21.00
2022-08-05T22:14:35.106Z,25.58
2022-08-05T22:17:06.643Z,22.05
2022-08-05T22:19:57.265Z,22.90
2022-08-05T22:22:27.778Z,28.08
2022-08-05T22:25:27.407Z,34.17
2022-08-05T22:28:04.944Z,27.08
2022-08-05T22:30:55.668Z,27.08
2022-08-05T22:33:55.889Z,21.35
2022-08-05T22:36:17.542Z,21.88
2022-08-05T22:38:48.575Z,20.00
2022-08-05T22:42:10.516Z,21.52
2022-08-05T22:44:29.178Z,22.45
2022-08-05T22:46:56.999Z,20.92
2022-08-05T22:50:18.335Z,22.15
2022-08-05T22:52:30.660Z,20.63
2022-08-05T22:55:00.651Z,20.42
2022-08-05T22:57:36.233Z,25.92
2022-08-05T23:00:07.802Z,21.45
2022-08-05T23:02:39.799Z,21.27
2022-08-05T23:05:08.924Z,21.58
2022-08-05T23:07:44.988Z,23.00
2022-08-05T23:10:14.524Z,25.20
2022-08-05T23:12:43.906Z,22.77
2022-08-05T23:15:12.411Z,21.42
2022-08-05T23:18:01.095Z,20.75
2022-08-05T23:20:27.972Z,22.75
2022-08-05T23:22:58.504Z,21.42
2022-08-05T23:25:53.095Z,24.80
2022-08-05T23:28:17.214Z,21.17
2022-08-05T23:30:53.608Z,20.50
2022-08-05T23:33:26.329Z,23.25
2022-08-05T23:36:13.752Z,21.23
2022-08-05T23:38:43.442Z,23.23
2022-08-05T23:41:11.843Z,24.35
2022-08-05T23:44:05.062Z,23.38
2022-08-05T23:46:28.617Z,22.92
2022-08-05T23:49:00.865Z,29.60
2022-08-05T23:51:53.683Z,25.98
2022-08-05T23:54:30.146Z,22.25
2022-08-05T23:57:04.976Z,23.65
